createdAt,value
2023-02-14T00:01:04.208Z,14.60
2023-02-14T00:06:04.133Z,11.10
2023-02-14T00:11:04.080Z,14.89
2023-02-14T00:16:04.050Z,9.19
2023-02-14T00:21:03.952Z,9.80
2023-02-14T00:26:03.878Z,8.00
2023-02-14T00:31:03.957Z,9.69
2023-02-14T00:36:03.751Z,9.60
2023-02-14T00:41:03.689Z,8.00
2023-02-14T00:46:03.654Z,9.80
2023-02-14T00:51:03.563Z,8.19
2023-02-14T00:56:03.487Z,10.10
2023-02-14T01:01:03.526Z,9.39
2023-02-14T01:06:03.362Z,8.80
2023-02-14T01:11:03.302Z,6.40
2023-02-14T01:16:03.287Z,8.00
2023-02-14T01:21:03.170Z,7.09
2023-02-14T01:26:03.100Z,10.89
2023-02-14T01:31:03.098Z,10.19
2023-02-14T01:36:02.982Z,7.90
2023-02-14T01:41:02.910Z,10.19
2023-02-14T01:46:02.967Z,9.60
2023-02-14T01:51:02.782Z,13.19
2023-02-14T01:56:02.772Z,9.39
2023-02-14T02:01:03.150Z,9.60
2023-02-14T02:06:02.582Z,11.39
2023-02-14T02:11:02.521Z,10.30
2023-02-14T02:16:02.449Z,8.50
2023-02-14T02:21:02.391Z,8.60
2023-02-14T02:26:02.320Z,8.30
2023-02-14T02:31:02.739Z,10.39
2023-02-14T02:36:02.193Z,9.19
2023-02-14T02:41:02.371Z,10.69
2023-02-14T02:46:02.159Z,8.60
2023-02-14T02:51:02.291Z,9.19
2023-02-14T02:56:01.929Z,9.80
2023-02-14T03:01:02.148Z,13.30
2023-02-14T03:06:01.802Z,11.00
2023-02-14T03:11:02.083Z,8.60
2023-02-14T03:16:01.751Z,14.39
2023-02-14T03:21:01.895Z,14.10
2023-02-14T03:26:01.550Z,9.19
2023-02-14T03:31:02.048Z,8.50
2023-02-14T03:36:01.422Z,10.10
2023-02-14T03:41:01.676Z,38.09
2023-02-14T03:46:01.338Z,15.30
2023-02-14T03:51:01.540Z,9.69
2023-02-14T03:56:01.152Z,10.69
2023-02-14T04:01:01.511Z,8.69
2023-02-14T04:06:01.023Z,9.30
2023-02-14T04:11:01.399Z,8.39
2023-02-14T04:16:00.965Z,9.60
2023-02-14T04:21:01.276Z,11.10
2023-02-14T04:26:00.759Z,9.00
2023-02-14T04:31:01.253Z,8.00
2023-02-14T04:36:00.639Z,8.50
2023-02-14T04:41:01.213Z,9.00
2023-02-14T04:46:00.510Z,8.19
2023-02-14T04:51:00.841Z,8.60
2023-02-14T04:56:00.374Z,9.69
2023-02-14T05:01:00.736Z,9.19
2023-02-14T05:06:00.246Z,9.00
2023-02-14T05:11:00.435Z,7.59
2023-02-14T05:16:00.195Z,9.50
2023-02-14T05:21:00.483Z,9.39
2023-02-14T05:25:59.986Z,7.90
2023-02-14T05:31:00.219Z,10.19
2023-02-14T05:35:59.850Z,11.50
2023-02-14T05:41:00.100Z,8.50
2023-02-14T05:45:59.859Z,10.19
2023-02-14T05:51:00.010Z,8.80
2023-02-14T05:55:59.596Z,8.10
2023-02-14T06:00:59.972Z,10.30
2023-02-14T06:05:59.471Z,8.39
2023-02-14T06:10:59.745Z,10.10
2023-02-14T06:15:59.338Z,7.69
2023-02-14T06:20:59.568Z,9.10
2023-02-14T06:25:59.205Z,27.20
2023-02-14T06:30:59.724Z,11.00
2023-02-14T06:35:59.078Z,14.89
2023-02-14T06:41:00.687Z,12.30
2023-02-14T06:45:58.976Z,9.39
2023-02-14T06:50:59.305Z,11.80
2023-02-14T06:55:58.822Z,9.69
2023-02-14T07:00:59.112Z,12.50
2023-02-14T07:05:58.690Z,10.30
2023-02-14T07:10:59.073Z,12.00
2023-02-14T07:15:58.674Z,10.89
2023-02-14T07:20:58.989Z,10.39
2023-02-14T07:25:58.431Z,13.60
2023-02-14T07:30:58.880Z,11.80
2023-02-14T07:35:58.299Z,13.80
2023-02-14T07:40:58.701Z,14.80
2023-02-14T07:45:58.191Z,12.50
2023-02-14T07:50:58.572Z,11.89
2023-02-14T07:55:58.037Z,10.50
2023-02-14T08:00:58.418Z,12.69
2023-02-14T08:05:57.903Z,10.69
2023-02-14T08:10:58.138Z,8.89
2023-02-14T08:15:57.888Z,9.39
2023-02-14T08:20:58.019Z,12.39
2023-02-14T08:25:57.666Z,6.69
2023-02-14T08:30:57.989Z,7.40
2023-02-14T08:35:57.514Z,7.40
2023-02-14T08:40:57.619Z,6.00
2023-02-14T08:45:57.525Z,7.50
2023-02-14T08:50:57.532Z,8.00
2023-02-14T08:55:57.401Z,6.50
2023-02-14T09:00:57.358Z,6.69
2023-02-14T09:05:57.113Z,5.80
2023-02-14T09:10:57.049Z,7.19
2023-02-14T09:15:57.014Z,7.00
2023-02-14T09:20:57.121Z,6.50
2023-02-14T09:25:56.828Z,6.69
2023-02-14T09:30:56.826Z,5.59
2023-02-14T09:35:56.706Z,4.59
2023-02-14T09:40:56.620Z,6.00
2023-02-14T09:45:56.640Z,6.30
2023-02-14T09:50:56.513Z,5.30
2023-02-14T09:55:56.443Z,4.19
2023-02-14T10:00:56.430Z,5.00
2023-02-14T10:05:56.310Z,5.80
2023-02-14T10:10:56.224Z,5.80
2023-02-14T10:15:56.166Z,5.19
2023-02-14T10:20:56.106Z,4.50
2023-02-14T10:25:56.038Z,3.09
2023-02-14T10:30:56.016Z,3.79
2023-02-14T10:35:55.902Z,3.79
2023-02-14T10:40:55.844Z,3.59
2023-02-14T10:45:55.811Z,4.00
2023-02-14T10:50:55.706Z,4.30
2023-02-14T10:55:55.654Z,3.90
2023-02-14T11:00:55.599Z,4.59
2023-02-14T11:05:55.532Z,5.80
2023-02-14T11:10:55.477Z,4.90
2023-02-14T11:15:55.398Z,7.50
2023-02-14T11:20:55.317Z,5.09
2023-02-14T11:25:55.268Z,4.90
2023-02-14T11:30:55.318Z,5.00
2023-02-14T11:35:55.140Z,7.69
2023-02-14T11:40:55.054Z,7.00
2023-02-14T11:45:55.055Z,5.69
2023-02-14T11:50:54.936Z,5.90
2023-02-14T11:55:54.880Z,6.09
2023-02-14T12:00:54.799Z,5.90
2023-02-14T12:05:54.741Z,8.10
2023-02-14T12:10:54.670Z,9.80
2023-02-14T12:15:54.644Z,12.89
2023-02-14T12:20:54.536Z,10.30
2023-02-14T12:25:54.476Z,14.30
2023-02-14T12:30:54.491Z,17.20
2023-02-14T12:35:54.343Z,20.79
2023-02-14T12:40:54.461Z,14.50
2023-02-14T12:45:54.205Z,12.39
2023-02-14T12:50:54.129Z,12.89
2023-02-14T12:55:54.072Z,12.30
2023-02-14T13:00:54.004Z,12.89
2023-02-14T13:05:53.937Z,15.19
2023-02-14T13:10:53.865Z,12.10
2023-02-14T13:15:53.841Z,13.10
2023-02-14T13:20:53.732Z,11.89
2023-02-14T13:25:53.670Z,12.00
2023-02-14T13:30:53.608Z,12.00
2023-02-14T13:35:53.535Z,12.69
2023-02-14T13:40:53.461Z,10.10
2023-02-14T13:45:53.797Z,12.50
2023-02-14T13:50:53.336Z,11.60
2023-02-14T13:55:53.256Z,12.10
2023-02-14T14:00:53.226Z,11.69
2023-02-14T14:05:53.123Z,16.50
2023-02-14T14:10:53.065Z,11.69
2023-02-14T14:15:52.982Z,13.69
2023-02-14T14:20:52.917Z,15.30
2023-02-14T14:25:52.854Z,15.69
2023-02-14T14:30:52.811Z,13.19
2023-02-14T14:35:52.720Z,15.19
2023-02-14T14:40:52.659Z,12.80
2023-02-14T14:45:52.818Z,14.10
2023-02-14T14:50:52.525Z,13.10
2023-02-14T14:55:52.456Z,15.60
2023-02-14T15:00:52.401Z,14.10
2023-02-14T15:05:52.347Z,12.60
2023-02-14T15:10:52.262Z,14.00
2023-02-14T15:15:52.196Z,13.19
2023-02-14T15:20:52.143Z,13.10
2023-02-14T15:25:52.071Z,14.39
2023-02-14T15:30:52.086Z,13.19
2023-02-14T15:35:51.931Z,13.10
2023-02-14T15:40:51.856Z,15.39
2023-02-14T15:45:51.870Z,16.50
2023-02-14T15:50:51.722Z,16.70
2023-02-14T15:55:51.666Z,16.39
2023-02-14T16:00:51.588Z,14.00
2023-02-14T16:05:51.521Z,14.89
2023-02-14T16:10:51.455Z,17.79
2023-02-14T16:15:51.435Z,15.50
2023-02-14T16:20:51.411Z,16.89
2023-02-14T16:25:51.256Z,17.89
2023-02-14T16:30:51.262Z,18.29
2023-02-14T16:35:51.124Z,18.89
2023-02-14T16:40:51.062Z,19.10
2023-02-14T16:45:51.093Z,17.89
2023-02-14T16:50:50.917Z,19.29
2023-02-14T16:55:50.856Z,16.20
2023-02-14T17:00:50.795Z,18.10
2023-02-14T17:05:50.725Z,15.10
2023-02-14T17:10:50.649Z,19.60
2023-02-14T17:15:50.661Z,25.50
2023-02-14T17:20:50.517Z,27.20
2023-02-14T17:25:50.477Z,30.70
2023-02-14T17:30:50.441Z,22.29
2023-02-14T17:35:50.326Z,21.29
2023-02-14T17:40:50.263Z,18.29
2023-02-14T17:45:50.199Z,23.29
2023-02-14T17:50:50.118Z,38.40
2023-02-14T17:55:50.062Z,25.39
2023-02-14T18:00:49.986Z,24.70
2023-02-14T18:05:49.927Z,22.00
2023-02-14T18:10:49.863Z,21.70
2023-02-14T18:15:49.841Z,18.60
2023-02-14T18:20:49.728Z,21.70
2023-02-14T18:25:49.677Z,25.00
2023-02-14T18:30:49.700Z,24.20
2023-02-14T18:35:49.531Z,23.00
2023-02-14T18:40:49.457Z,21.10
2023-02-14T18:45:49.482Z,28.39
2023-02-14T18:50:50.507Z,27.39
2023-02-14T18:55:49.244Z,23.79
2023-02-14T19:00:49.178Z,25.29
2023-02-14T19:05:49.117Z,29.20
2023-02-14T19:10:49.043Z,29.60
2023-02-14T19:15:48.978Z,27.00
2023-02-14T19:20:49.445Z,24.79
2023-02-14T19:25:49.053Z,23.79
2023-02-14T19:30:49.232Z,39.70
2023-02-14T19:35:49.023Z,47.20
2023-02-14T19:40:49.042Z,58.00
2023-02-14T19:45:49.355Z,64.00
2023-02-14T19:50:49.059Z,45.79
2023-02-14T19:55:48.465Z,34.79
2023-02-14T20:00:48.414Z,29.70
2023-02-14T20:05:48.332Z,24.29
2023-02-14T20:10:48.266Z,28.70
2023-02-14T20:15:48.186Z,27.70
2023-02-14T20:20:48.132Z,28.50
2023-02-14T20:25:48.042Z,28.29
2023-02-14T20:30:48.104Z,31.50
2023-02-14T20:35:47.912Z,30.60
2023-02-14T20:40:47.868Z,32.90
2023-02-14T20:45:47.825Z,31.70
2023-02-14T20:50:47.718Z,35.70
2023-02-14T20:55:47.661Z,30.60
2023-02-14T21:00:47.591Z,28.39
2023-02-14T21:05:47.543Z,29.70
2023-02-14T21:10:47.468Z,27.29
2023-02-14T21:15:47.441Z,34.90
2023-02-14T21:20:47.333Z,33.00
2023-02-14T21:25:47.263Z,25.00
2023-02-14T21:30:47.333Z,25.60
2023-02-14T21:35:47.152Z,30.89
2023-02-14T21:40:47.091Z,27.70
2023-02-14T21:45:47.009Z,27.50
2023-02-14T21:50:46.962Z,25.89
2023-02-14T21:55:46.879Z,29.00
2023-02-14T22:00:46.833Z,27.79
2023-02-14T22:05:46.752Z,27.70
2023-02-14T22:10:46.694Z,30.39
2023-02-14T22:15:46.654Z,29.79
2023-02-14T22:20:46.581Z,23.29
2023-02-14T22:25:46.499Z,23.89
2023-02-14T22:30:46.433Z,25.70
2023-02-14T22:35:46.420Z,31.10
2023-02-14T22:40:46.361Z,25.29
2023-02-14T22:45:46.272Z,26.89
2023-02-14T22:50:46.223Z,25.29
2023-02-14T22:55:46.198Z,23.39
2023-02-14T23:00:46.045Z,21.70
2023-02-14T23:05:45.974Z,23.70
2023-02-14T23:10:45.916Z,25.00
2023-02-14T23:15:45.891Z,27.10
2023-02-14T23:20:45.858Z,21.29
2023-02-14T23:25:45.713Z,28.50
2023-02-14T23:30:45.656Z,24.00
2023-02-14T23:35:45.593Z,23.79
2023-02-14T23:40:45.525Z,19.60
2023-02-14T23:45:45.522Z,18.79
2023-02-14T23:50:45.402Z,20.79
2023-02-14T23:55:45.333Z,17.00
